createdAt,value
2017-11-08T00:00:30.993Z,21.96
2017-11-08T00:01:30.982Z,21.85
2017-11-08T00:02:30.979Z,21.85
2017-11-08T00:03:30.970Z,21.83
2017-11-08T00:04:30.986Z,21.83
2017-11-08T00:05:30.959Z,21.78
2017-11-08T00:06:30.953Z,21.78
2017-11-08T00:07:30.947Z,21.84
2017-11-08T00:08:30.943Z,21.81
2017-11-08T00:09:30.934Z,21.81
2017-11-08T00:10:30.934Z,21.77
2017-11-08T00:11:30.923Z,21.83
2017-11-08T00:12:30.928Z,21.83
2017-11-08T00:13:30.912Z,21.84
2017-11-08T00:14:30.905Z,21.85
2017-11-08T00:15:30.908Z,21.81
2017-11-08T00:16:30.899Z,21.78
2017-11-08T00:17:30.895Z,21.91
2017-11-08T00:18:30.884Z,21.78
2017-11-08T00:19:30.878Z,21.81
2017-11-08T00:20:30.881Z,21.74
2017-11-08T00:21:30.859Z,21.81
2017-11-08T00:22:30.858Z,21.78
2017-11-08T00:23:30.851Z,21.80
2017-11-08T00:24:30.849Z,21.78
2017-11-08T00:25:30.847Z,21.84
2017-11-08T00:26:30.838Z,21.83
2017-11-08T00:27:30.831Z,21.80
2017-11-08T00:28:30.829Z,21.83
2017-11-08T00:29:30.827Z,21.80
2017-11-08T00:30:30.812Z,21.75
2017-11-08T00:31:30.808Z,21.78
2017-11-08T00:32:30.807Z,21.77
2017-11-08T00:33:30.799Z,21.74
2017-11-08T00:34:30.794Z,21.75
2017-11-08T00:35:30.785Z,21.78
2017-11-08T00:36:30.780Z,21.77
2017-11-08T00:37:30.776Z,21.75
2017-11-08T00:38:30.769Z,21.77
2017-11-08T00:39:30.764Z,21.77
2017-11-08T00:40:30.756Z,21.78
2017-11-08T00:41:30.752Z,21.77
2017-11-08T00:42:30.753Z,21.74
2017-11-08T00:43:30.745Z,21.78
2017-11-08T00:44:30.736Z,21.74
2017-11-08T00:45:30.734Z,21.72
2017-11-08T00:46:30.723Z,21.72
2017-11-08T00:47:30.714Z,21.75
2017-11-08T00:48:30.718Z,21.74
2017-11-08T00:49:30.722Z,21.77
2017-11-08T00:50:30.704Z,21.74
2017-11-08T00:51:30.694Z,21.77
2017-11-08T00:52:30.693Z,21.80
2017-11-08T00:53:30.684Z,21.75
2017-11-08T00:54:30.677Z,21.74
2017-11-08T00:55:30.671Z,21.75
2017-11-08T00:56:30.663Z,21.74
2017-11-08T00:57:30.669Z,21.77
2017-11-08T00:58:30.656Z,21.74
2017-11-08T00:59:30.649Z,21.75
2017-11-08T01:00:30.645Z,21.77
2017-11-08T01:01:30.638Z,21.77
2017-11-08T01:02:30.639Z,21.74
2017-11-08T01:03:30.628Z,21.74
2017-11-08T01:04:30.617Z,21.74
2017-11-08T01:05:30.614Z,21.74
2017-11-08T01:06:30.610Z,21.77
2017-11-08T01:07:30.607Z,21.77
2017-11-08T01:08:30.597Z,21.74
2017-11-08T01:09:30.601Z,21.74
2017-11-08T01:10:30.587Z,21.77
2017-11-08T01:11:30.579Z,21.72
2017-11-08T01:12:30.579Z,21.74
2017-11-08T01:13:30.571Z,21.81
2017-11-08T01:14:30.562Z,21.75
2017-11-08T01:15:30.558Z,21.75
2017-11-08T01:16:30.553Z,21.75
2017-11-08T01:17:30.552Z,21.72
2017-11-08T01:18:30.546Z,21.80
2017-11-08T01:19:30.535Z,21.78
2017-11-08T01:20:30.522Z,21.77
2017-11-08T01:21:30.524Z,21.80
2017-11-08T01:22:30.516Z,21.75
2017-11-08T01:23:30.512Z,21.80
2017-11-08T01:24:30.550Z,21.78
2017-11-08T01:25:30.503Z,21.77
2017-11-08T01:26:30.495Z,21.74
2017-11-08T01:27:30.489Z,21.78
2017-11-08T01:28:30.483Z,21.74
2017-11-08T01:29:30.479Z,21.78
2017-11-08T01:30:30.480Z,21.68
2017-11-08T01:31:30.467Z,21.83
2017-11-08T01:32:30.460Z,21.72
2017-11-08T01:33:30.454Z,21.74
2017-11-08T01:34:30.456Z,21.75
2017-11-08T01:35:30.450Z,21.75
2017-11-08T01:36:30.438Z,21.75
2017-11-08T01:37:30.436Z,21.72
2017-11-08T01:38:30.423Z,21.74
2017-11-08T01:39:30.418Z,21.74
2017-11-08T01:40:30.414Z,21.74
2017-11-08T01:41:30.410Z,21.78
2017-11-08T01:42:30.409Z,21.74
2017-11-08T01:43:30.406Z,21.78
2017-11-08T01:44:30.392Z,21.72
2017-11-08T01:45:30.385Z,21.81
2017-11-08T01:46:30.381Z,21.77
2017-11-08T01:47:30.376Z,21.74
2017-11-08T01:48:30.370Z,21.74
2017-11-08T01:49:30.366Z,21.77
2017-11-08T01:50:30.363Z,21.77
2017-11-08T01:51:30.360Z,21.80
2017-11-08T01:52:30.352Z,21.75
2017-11-08T01:53:30.346Z,21.65
2017-11-08T01:54:30.339Z,21.72
2017-11-08T01:55:30.331Z,21.75
2017-11-08T01:56:30.324Z,21.65
2017-11-08T01:57:30.325Z,21.74
2017-11-08T01:58:30.315Z,21.68
2017-11-08T01:59:30.306Z,21.74
2017-11-08T02:00:30.303Z,21.69
2017-11-08T02:01:30.295Z,21.72
2017-11-08T02:02:30.290Z,21.65
2017-11-08T02:03:30.284Z,21.66
2017-11-08T02:04:30.281Z,21.74
2017-11-08T02:05:30.277Z,21.65
2017-11-08T02:06:30.268Z,21.66
2017-11-08T02:07:30.269Z,21.62
2017-11-08T02:08:30.258Z,21.69
2017-11-08T02:09:30.251Z,21.68
2017-11-08T02:10:30.243Z,21.63
2017-11-08T02:11:30.243Z,21.66
2017-11-08T02:12:30.238Z,21.69
2017-11-08T02:13:30.229Z,21.62
2017-11-08T02:14:30.235Z,21.66
2017-11-08T02:15:30.225Z,21.66
2017-11-08T02:16:30.211Z,21.68
2017-11-08T02:17:30.206Z,21.65
2017-11-08T02:18:30.646Z,21.66
2017-11-08T02:19:30.209Z,21.63
2017-11-08T02:20:30.186Z,21.68
2017-11-08T02:21:30.183Z,21.59
2017-11-08T02:22:30.181Z,21.66
2017-11-08T02:23:30.171Z,21.66
2017-11-08T02:24:30.170Z,21.72
2017-11-08T02:25:30.160Z,21.63
2017-11-08T02:26:30.156Z,21.65
2017-11-08T02:27:30.145Z,21.68
2017-11-08T02:28:30.141Z,21.62
2017-11-08T02:29:30.139Z,21.60
2017-11-08T02:30:30.135Z,21.69
2017-11-08T02:31:30.125Z,21.62
2017-11-08T02:32:30.123Z,21.66
2017-11-08T02:33:30.135Z,21.66
2017-11-08T02:34:30.113Z,21.62
2017-11-08T02:35:30.118Z,21.62
2017-11-08T02:36:30.097Z,21.70
2017-11-08T02:37:30.093Z,21.68
2017-11-08T02:38:30.086Z,21.70
2017-11-08T02:39:30.090Z,21.68
2017-11-08T02:40:30.073Z,21.66
2017-11-08T02:41:30.072Z,21.59
2017-11-08T02:42:30.088Z,21.59
2017-11-08T02:43:30.063Z,21.66
2017-11-08T02:44:30.048Z,21.68
2017-11-08T02:45:30.044Z,21.68
2017-11-08T02:46:30.042Z,21.59
2017-11-08T02:47:30.040Z,21.62
2017-11-08T02:48:30.029Z,21.62
2017-11-08T02:49:30.023Z,21.65
2017-11-08T02:50:30.019Z,21.65
2017-11-08T02:51:30.013Z,21.70
2017-11-08T02:52:30.008Z,21.60
2017-11-08T02:53:30.001Z,21.66
2017-11-08T02:54:29.999Z,21.62
2017-11-08T02:55:29.990Z,21.59
2017-11-08T02:56:29.984Z,21.63
2017-11-08T02:57:29.986Z,21.68
2017-11-08T02:58:29.972Z,21.68
2017-11-08T02:59:29.965Z,21.56
2017-11-08T03:00:29.967Z,21.68
2017-11-08T03:01:29.955Z,21.65
2017-11-08T03:02:29.950Z,21.51
2017-11-08T03:03:29.941Z,21.53
2017-11-08T03:04:29.939Z,21.51
2017-11-08T03:05:29.933Z,21.53
2017-11-08T03:06:29.925Z,21.53
2017-11-08T03:07:29.932Z,21.54
2017-11-08T03:08:29.919Z,21.53
2017-11-08T03:09:29.910Z,21.51
2017-11-08T03:10:29.905Z,21.56
2017-11-08T03:11:29.897Z,21.45
2017-11-08T03:12:29.888Z,21.54
2017-11-08T03:13:29.886Z,21.60
2017-11-08T03:14:29.884Z,21.50
2017-11-08T03:15:29.876Z,21.56
2017-11-08T03:16:29.871Z,21.59
2017-11-08T03:17:29.865Z,21.51
2017-11-08T03:18:29.858Z,21.59
2017-11-08T03:19:29.854Z,21.53
2017-11-08T03:20:29.846Z,21.51
2017-11-08T03:21:29.843Z,21.53
2017-11-08T03:22:29.836Z,21.53
2017-11-08T03:23:29.830Z,21.51
2017-11-08T03:24:29.830Z,21.56
2017-11-08T03:25:29.817Z,21.51
2017-11-08T03:26:29.815Z,21.53
2017-11-08T03:27:29.806Z,21.51
2017-11-08T03:28:29.800Z,21.51
2017-11-08T03:29:29.794Z,21.56
2017-11-08T03:30:29.797Z,21.51
2017-11-08T03:31:29.791Z,21.53
2017-11-08T03:32:29.785Z,21.56
2017-11-08T03:33:29.773Z,21.51
2017-11-08T03:34:29.768Z,21.59
2017-11-08T03:35:29.759Z,21.50
2017-11-08T03:36:29.756Z,21.59
2017-11-08T03:37:29.749Z,21.56
2017-11-08T03:38:29.743Z,21.47
2017-11-08T03:39:29.740Z,21.51
2017-11-08T03:40:29.737Z,21.50
2017-11-08T03:41:29.731Z,21.48
2017-11-08T03:42:29.725Z,21.50
2017-11-08T03:43:29.728Z,21.59
2017-11-08T03:44:29.707Z,21.56
2017-11-08T03:45:29.706Z,21.53
2017-11-08T03:46:29.697Z,21.59
2017-11-08T03:47:29.693Z,21.50
2017-11-08T03:48:29.687Z,21.58
2017-11-08T03:49:29.682Z,21.58
2017-11-08T03:50:29.676Z,21.56
2017-11-08T03:51:29.669Z,21.56
2017-11-08T03:52:29.666Z,21.54
2017-11-08T03:53:29.660Z,21.59
2017-11-08T03:54:29.654Z,21.59
2017-11-08T03:55:29.648Z,21.53
2017-11-08T03:56:29.653Z,21.50
2017-11-08T03:57:29.649Z,21.53
2017-11-08T03:58:29.632Z,21.58
2017-11-08T03:59:29.626Z,21.50
2017-11-08T04:00:29.618Z,21.65
2017-11-08T04:01:29.613Z,21.60
2017-11-08T04:02:29.600Z,21.66
2017-11-08T04:03:29.601Z,21.63
2017-11-08T04:04:29.594Z,21.70
2017-11-08T04:05:29.610Z,21.72
2017-11-08T04:06:29.592Z,21.77
2017-11-08T04:07:29.578Z,21.77
2017-11-08T04:08:29.572Z,21.85
2017-11-08T04:09:29.572Z,21.83
2017-11-08T04:10:29.559Z,21.83
2017-11-08T04:11:29.554Z,21.84
2017-11-08T04:12:29.556Z,21.88
2017-11-08T04:13:29.555Z,21.99
2017-11-08T04:14:29.552Z,22.01
2017-11-08T04:15:29.534Z,22.07
2017-11-08T04:16:29.527Z,22.07
2017-11-08T04:17:29.523Z,22.04
2017-11-08T04:18:29.517Z,22.10
2017-11-08T04:19:29.509Z,22.12
2017-11-08T04:20:29.509Z,22.21
2017-11-08T04:21:29.501Z,22.14
2017-11-08T04:22:29.492Z,22.21
2017-11-08T04:23:29.491Z,22.21
2017-11-08T04:24:29.483Z,22.18
2017-11-08T04:25:29.482Z,22.22
2017-11-08T04:26:29.472Z,22.28
2017-11-08T04:27:29.462Z,22.25
2017-11-08T04:28:29.464Z,22.28
2017-11-08T04:29:29.454Z,22.23
2017-11-08T04:30:29.453Z,22.30
2017-11-08T04:31:29.443Z,22.25
2017-11-08T04:32:29.437Z,22.30
2017-11-08T04:33:29.453Z,22.26
2017-11-08T04:34:29.428Z,22.34
2017-11-08T04:35:29.420Z,22.23
2017-11-08T04:36:29.415Z,22.23
2017-11-08T04:37:29.414Z,22.28
2017-11-08T04:38:29.405Z,22.30
2017-11-08T04:39:29.442Z,22.22
2017-11-08T04:40:29.400Z,22.28
2017-11-08T04:41:29.412Z,22.31
2017-11-08T04:42:29.383Z,22.25
2017-11-08T04:43:29.415Z,22.25
2017-11-08T04:44:29.378Z,22.34
2017-11-08T04:45:29.369Z,22.34
2017-11-08T04:46:29.361Z,22.34
2017-11-08T04:47:29.356Z,22.36
2017-11-08T04:48:29.350Z,22.34
2017-11-08T04:49:29.344Z,22.41
2017-11-08T04:50:29.342Z,22.52
2017-11-08T04:51:29.334Z,22.52
2017-11-08T04:52:29.327Z,22.51
2017-11-08T04:53:29.321Z,22.51
2017-11-08T04:54:29.317Z,22.46
2017-11-08T04:55:29.307Z,22.44
2017-11-08T04:56:29.300Z,22.38
2017-11-08T04:57:29.299Z,22.43
2017-11-08T04:58:29.291Z,22.41
2017-11-08T04:59:29.283Z,22.31
2017-11-08T05:00:29.286Z,22.40
2017-11-08T05:01:29.273Z,22.37
2017-11-08T05:02:29.265Z,22.30
2017-11-08T05:03:29.262Z,22.37
2017-11-08T05:04:29.254Z,22.38
2017-11-08T05:05:29.250Z,22.34
2017-11-08T05:06:29.242Z,22.30
2017-11-08T05:07:29.235Z,22.36
2017-11-08T05:08:29.224Z,22.33
2017-11-08T05:09:29.225Z,22.31
2017-11-08T05:10:29.215Z,22.37
2017-11-08T05:11:29.215Z,22.37
2017-11-08T05:12:29.201Z,22.31
2017-11-08T05:13:29.194Z,22.34
2017-11-08T05:14:29.187Z,22.43
2017-11-08T05:15:29.184Z,22.34
2017-11-08T05:16:29.174Z,22.34
2017-11-08T05:17:29.168Z,22.37
2017-11-08T05:18:29.162Z,22.37
2017-11-08T05:19:29.161Z,22.43
2017-11-08T05:20:29.153Z,22.38
2017-11-08T05:21:29.142Z,22.40
2017-11-08T05:22:29.134Z,22.41
2017-11-08T05:23:29.173Z,22.38
2017-11-08T05:24:29.124Z,22.43
2017-11-08T05:25:29.116Z,22.44
2017-11-08T05:26:29.107Z,22.44
2017-11-08T05:27:29.116Z,22.40
2017-11-08T05:28:30.437Z,22.44
2017-11-08T05:29:29.088Z,22.41
2017-11-08T05:30:29.081Z,22.44
2017-11-08T05:31:29.078Z,22.43
2017-11-08T05:32:29.067Z,22.40
2017-11-08T05:33:29.070Z,22.43
2017-11-08T05:34:29.056Z,22.38
2017-11-08T05:35:29.048Z,22.44
2017-11-08T05:36:29.038Z,22.41
2017-11-08T05:37:29.032Z,22.43
2017-11-08T05:38:29.028Z,22.38
2017-11-08T05:39:29.022Z,22.37
2017-11-08T05:40:29.022Z,22.37
2017-11-08T05:41:29.007Z,22.41
2017-11-08T05:42:29.003Z,22.38
2017-11-08T05:43:28.995Z,22.44
2017-11-08T05:44:28.985Z,22.43
2017-11-08T05:45:28.979Z,22.34
2017-11-08T05:46:28.972Z,22.31
2017-11-08T05:47:28.969Z,22.34
2017-11-08T05:48:28.959Z,22.31
2017-11-08T05:49:28.950Z,22.38
2017-11-08T05:50:28.945Z,22.37
2017-11-08T05:51:28.938Z,22.31
2017-11-08T05:52:28.930Z,22.36
2017-11-08T05:53:28.924Z,22.37
2017-11-08T05:54:28.920Z,22.41
2017-11-08T05:55:28.912Z,22.38
2017-11-08T05:56:28.904Z,22.31
2017-11-08T05:57:28.909Z,22.34
2017-11-08T05:58:28.895Z,22.38
2017-11-08T05:59:28.884Z,22.34
2017-11-08T06:00:28.875Z,22.34
2017-11-08T06:01:28.878Z,22.36
2017-11-08T06:02:28.865Z,22.37
2017-11-08T06:03:28.855Z,22.37
2017-11-08T06:04:28.849Z,22.31
2017-11-08T06:05:28.842Z,22.30
2017-11-08T06:06:28.861Z,22.31
2017-11-08T06:07:28.834Z,22.37
2017-11-08T06:08:28.823Z,22.40
2017-11-08T06:09:28.815Z,22.37
2017-11-08T06:10:28.807Z,22.37
2017-11-08T06:11:28.800Z,22.38
2017-11-08T06:12:28.796Z,22.31
2017-11-08T06:13:28.789Z,22.34
2017-11-08T06:14:28.781Z,22.37
2017-11-08T06:15:28.774Z,22.34
2017-11-08T06:16:28.768Z,22.34
2017-11-08T06:17:28.764Z,22.38
2017-11-08T06:18:28.762Z,22.31
2017-11-08T06:19:28.742Z,22.37
2017-11-08T06:20:28.743Z,22.28
2017-11-08T06:21:28.737Z,22.37
2017-11-08T06:22:28.727Z,22.33
2017-11-08T06:23:28.730Z,22.34
2017-11-08T06:24:28.712Z,22.33
2017-11-08T06:25:28.707Z,22.28
2017-11-08T06:26:28.701Z,22.25
2017-11-08T06:27:28.695Z,22.38
2017-11-08T06:28:28.687Z,22.38
2017-11-08T06:29:28.679Z,22.40
2017-11-08T06:30:28.677Z,22.36
2017-11-08T06:31:28.668Z,22.33
2017-11-08T06:32:28.659Z,22.33
2017-11-08T06:33:28.650Z,22.37
2017-11-08T06:34:28.645Z,22.36
2017-11-08T06:35:28.637Z,22.33
2017-11-08T06:36:28.631Z,22.33
2017-11-08T06:37:28.634Z,22.37
2017-11-08T06:38:28.618Z,22.31
2017-11-08T06:39:28.610Z,22.38
2017-11-08T06:40:28.604Z,22.40
2017-11-08T06:41:28.638Z,22.30
2017-11-08T06:42:28.593Z,22.37
2017-11-08T06:43:28.601Z,22.38
2017-11-08T06:44:28.583Z,22.37
2017-11-08T06:45:28.571Z,22.34
2017-11-08T06:46:28.565Z,22.36
2017-11-08T06:47:28.602Z,22.41
2017-11-08T06:48:28.546Z,22.34
2017-11-08T06:49:28.556Z,22.36
2017-11-08T06:50:28.552Z,22.34
2017-11-08T06:51:28.533Z,22.31
2017-11-08T06:52:28.522Z,22.38
2017-11-08T06:53:28.514Z,22.31
2017-11-08T06:54:28.515Z,22.31
2017-11-08T06:55:28.503Z,22.30
2017-11-08T06:56:28.496Z,22.37
2017-11-08T06:57:28.489Z,22.26
2017-11-08T06:58:28.494Z,22.37
2017-11-08T06:59:28.477Z,22.36
2017-11-08T07:00:28.484Z,22.34
2017-11-08T07:01:28.454Z,22.38
2017-11-08T07:02:28.456Z,22.36
2017-11-08T07:03:28.444Z,22.34
2017-11-08T07:04:28.438Z,22.41
2017-11-08T07:05:28.433Z,22.36
2017-11-08T07:06:28.425Z,22.31
2017-11-08T07:07:28.422Z,22.31
2017-11-08T07:08:28.415Z,22.31
2017-11-08T07:09:28.406Z,22.38
2017-11-08T07:10:28.399Z,22.25
2017-11-08T07:11:28.388Z,22.37
2017-11-08T07:12:28.392Z,22.26
2017-11-08T07:13:28.377Z,22.36
2017-11-08T07:14:28.370Z,22.33
2017-11-08T07:15:28.365Z,22.34
2017-11-08T07:16:28.355Z,22.33
2017-11-08T07:17:28.353Z,22.30
2017-11-08T07:18:28.344Z,22.23
2017-11-08T07:19:28.338Z,22.40
2017-11-08T07:20:28.328Z,22.30
2017-11-08T07:21:28.326Z,22.23
2017-11-08T07:22:28.316Z,22.23
2017-11-08T07:23:28.310Z,22.23
2017-11-08T07:24:28.301Z,22.36
2017-11-08T07:25:28.304Z,22.37
2017-11-08T07:26:28.289Z,22.36
2017-11-08T07:27:28.280Z,22.41
2017-11-08T07:28:28.274Z,22.37
2017-11-08T07:29:28.270Z,22.36
2017-11-08T07:30:28.263Z,22.33
2017-11-08T07:31:28.252Z,22.40
2017-11-08T07:32:28.244Z,22.34
2017-11-08T07:33:28.244Z,22.33
2017-11-08T07:34:28.233Z,22.37
2017-11-08T07:35:28.226Z,22.33
2017-11-08T07:36:28.221Z,22.30
2017-11-08T07:37:28.212Z,22.37
2017-11-08T07:38:28.206Z,22.31
2017-11-08T07:39:28.196Z,22.31
2017-11-08T07:40:28.196Z,22.33
2017-11-08T07:41:28.186Z,22.31
2017-11-08T07:42:28.183Z,22.40
2017-11-08T07:43:28.170Z,22.30
2017-11-08T07:44:28.164Z,22.34
2017-11-08T07:45:28.183Z,22.36
2017-11-08T07:46:28.161Z,22.37
2017-11-08T07:47:28.143Z,22.36
2017-11-08T07:48:28.165Z,22.30
2017-11-08T07:49:28.127Z,22.26
2017-11-08T07:50:28.152Z,22.36
2017-11-08T07:51:28.116Z,22.30
2017-11-08T07:52:28.111Z,22.31
2017-11-08T07:53:28.109Z,22.34
2017-11-08T07:54:28.095Z,22.38
2017-11-08T07:55:28.091Z,22.34
2017-11-08T07:56:28.084Z,22.36
2017-11-08T07:57:28.076Z,22.34
2017-11-08T07:58:28.072Z,22.33
2017-11-08T07:59:28.069Z,22.36
2017-11-08T08:00:28.053Z,22.36
2017-11-08T08:01:28.050Z,22.34
2017-11-08T08:02:28.047Z,22.37
2017-11-08T08:03:28.035Z,22.40
2017-11-08T08:04:28.028Z,22.36
2017-11-08T08:05:28.022Z,22.36
2017-11-08T08:06:28.014Z,22.40
2017-11-08T08:07:28.011Z,22.36
2017-11-08T08:08:28.000Z,22.33
2017-11-08T08:09:28.000Z,22.31
2017-11-08T08:10:27.989Z,22.33
2017-11-08T08:11:27.978Z,22.38
2017-11-08T08:12:27.972Z,22.34
2017-11-08T08:13:27.968Z,22.34
2017-11-08T08:14:27.957Z,22.36
2017-11-08T08:15:27.952Z,22.37
2017-11-08T08:16:27.949Z,22.36
2017-11-08T08:17:27.937Z,22.33
2017-11-08T08:18:27.933Z,22.34
2017-11-08T08:19:27.922Z,22.34
2017-11-08T08:20:27.918Z,22.36
2017-11-08T08:21:27.912Z,22.33
2017-11-08T08:22:27.904Z,22.36
2017-11-08T08:23:27.902Z,22.28
2017-11-08T08:24:27.893Z,22.34
2017-11-08T08:25:27.884Z,22.36
2017-11-08T08:26:27.877Z,22.31
2017-11-08T08:27:27.869Z,22.37
2017-11-08T08:28:27.866Z,22.43
2017-11-08T08:29:27.856Z,22.34
2017-11-08T08:30:27.853Z,22.40
2017-11-08T08:31:27.842Z,22.40
2017-11-08T08:32:27.834Z,22.34
2017-11-08T08:33:27.835Z,22.34
2017-11-08T08:34:27.822Z,22.38
2017-11-08T08:35:27.814Z,22.31
2017-11-08T08:36:27.809Z,22.36
2017-11-08T08:37:27.805Z,22.34
2017-11-08T08:38:27.792Z,22.37
2017-11-08T08:39:27.789Z,22.37
2017-11-08T08:40:27.781Z,22.36
2017-11-08T08:41:27.774Z,22.34
2017-11-08T08:42:27.767Z,22.36
2017-11-08T08:43:27.760Z,22.36
2017-11-08T08:44:27.758Z,22.34
2017-11-08T08:45:27.748Z,22.43
2017-11-08T08:46:27.738Z,22.38
2017-11-08T08:47:27.732Z,22.41
2017-11-08T08:48:27.726Z,22.36
2017-11-08T08:49:27.718Z,22.38
2017-11-08T08:50:27.712Z,22.40
2017-11-08T08:51:27.720Z,22.37
2017-11-08T08:52:27.697Z,22.40
2017-11-08T08:53:27.695Z,22.37
2017-11-08T08:54:27.683Z,22.36
2017-11-08T08:55:27.676Z,22.43
2017-11-08T08:56:27.681Z,22.36
2017-11-08T08:57:27.663Z,22.38
2017-11-08T08:58:27.659Z,22.40
2017-11-08T08:59:27.650Z,22.34
2017-11-08T09:00:27.644Z,22.37
2017-11-08T09:01:27.637Z,22.37
2017-11-08T09:02:27.631Z,22.30
2017-11-08T09:03:27.626Z,22.34
2017-11-08T09:04:27.614Z,22.31
2017-11-08T09:05:27.614Z,22.37
2017-11-08T09:06:27.603Z,22.31
2017-11-08T09:07:27.595Z,22.33
2017-11-08T09:08:27.588Z,22.36
2017-11-08T09:09:27.584Z,22.37
2017-11-08T09:10:27.572Z,22.37
2017-11-08T09:11:27.567Z,22.37
2017-11-08T09:12:27.561Z,22.40
2017-11-08T09:13:27.564Z,22.33
2017-11-08T09:14:27.546Z,22.30
2017-11-08T09:15:27.541Z,22.37
2017-11-08T09:16:27.531Z,22.40
2017-11-08T09:17:27.526Z,22.28
2017-11-08T09:18:27.521Z,22.34
2017-11-08T09:19:27.513Z,22.33
2017-11-08T09:20:27.506Z,22.38
2017-11-08T09:21:27.502Z,22.34
2017-11-08T09:22:27.492Z,22.33
2017-11-08T09:23:27.486Z,22.31
2017-11-08T09:24:27.479Z,22.38
2017-11-08T09:25:27.472Z,22.34
2017-11-08T09:26:27.470Z,22.36
2017-11-08T09:27:27.463Z,22.37
2017-11-08T09:28:27.452Z,22.38
2017-11-08T09:29:27.443Z,22.37
2017-11-08T09:30:27.438Z,22.38
2017-11-08T09:31:27.430Z,22.37
2017-11-08T09:32:27.424Z,22.34
2017-11-08T09:33:27.419Z,22.44
2017-11-08T09:34:27.950Z,22.34
2017-11-08T09:35:27.406Z,22.40
2017-11-08T09:36:27.395Z,22.37
2017-11-08T09:37:27.394Z,22.40
2017-11-08T09:38:27.385Z,22.38
2017-11-08T09:39:27.373Z,22.37
2017-11-08T09:40:27.369Z,22.37
2017-11-08T09:41:27.369Z,22.38
2017-11-08T09:42:27.359Z,22.38
2017-11-08T09:43:27.347Z,22.43
2017-11-08T09:44:27.343Z,22.40
2017-11-08T09:45:27.334Z,22.38
2017-11-08T09:46:27.328Z,22.40
2017-11-08T09:47:27.321Z,22.41
2017-11-08T09:48:27.316Z,22.38
2017-11-08T09:49:27.310Z,22.43
2017-11-08T09:50:27.302Z,22.43
2017-11-08T09:51:27.292Z,22.44
2017-11-08T09:52:27.286Z,22.43
2017-11-08T09:53:27.278Z,22.38
2017-11-08T09:54:27.276Z,22.40
2017-11-08T09:55:27.272Z,22.43
2017-11-08T09:56:27.260Z,22.34
2017-11-08T09:57:27.252Z,22.38
2017-11-08T09:58:27.245Z,22.33
2017-11-08T09:59:27.239Z,22.40
2017-11-08T10:00:27.233Z,22.37
2017-11-08T10:01:27.226Z,22.31
2017-11-08T10:02:27.221Z,22.36
2017-11-08T10:03:27.213Z,22.36
2017-11-08T10:04:27.205Z,22.36
2017-11-08T10:05:27.197Z,22.37
2017-11-08T10:06:27.195Z,22.34
2017-11-08T10:07:27.189Z,22.26
2017-11-08T10:08:27.200Z,22.33
2017-11-08T10:09:27.176Z,22.23
2017-11-08T10:10:27.205Z,22.31
2017-11-08T10:11:27.157Z,22.30
2017-11-08T10:12:27.169Z,22.28
2017-11-08T10:13:27.142Z,22.25
2017-11-08T10:14:27.183Z,22.28
2017-11-08T10:15:27.143Z,22.28
2017-11-08T10:16:27.124Z,22.40
2017-11-08T10:17:27.115Z,22.28
2017-11-08T10:18:27.110Z,22.30
2017-11-08T10:19:27.136Z,22.25
2017-11-08T10:20:27.097Z,22.36
2017-11-08T10:21:27.086Z,22.30
2017-11-08T10:22:27.081Z,22.23
2017-11-08T10:23:27.076Z,22.23
2017-11-08T10:24:27.066Z,22.28
2017-11-08T10:25:27.061Z,22.36
2017-11-08T10:26:27.070Z,22.28
2017-11-08T10:27:27.045Z,22.33
2017-11-08T10:28:27.039Z,22.33
2017-11-08T10:29:27.037Z,22.31
2017-11-08T10:30:27.028Z,22.38
2017-11-08T10:31:27.022Z,22.37
2017-11-08T10:32:27.019Z,22.37
2017-11-08T10:33:26.997Z,22.36
2017-11-08T10:34:26.999Z,22.26
2017-11-08T10:35:26.994Z,22.40
2017-11-08T10:36:26.984Z,22.36
2017-11-08T10:37:26.979Z,22.37
2017-11-08T10:38:26.970Z,22.33
2017-11-08T10:39:26.964Z,22.40
2017-11-08T10:40:26.959Z,22.37
2017-11-08T10:41:26.953Z,22.34
2017-11-08T10:43:26.901Z,22.31
2017-11-08T10:44:26.896Z,22.33
2017-11-08T10:45:26.887Z,22.38
2017-11-08T10:46:26.885Z,22.30
2017-11-08T10:47:26.873Z,22.37
2017-11-08T10:48:26.868Z,22.37
2017-11-08T10:49:26.862Z,22.37
2017-11-08T10:50:26.852Z,22.31
2017-11-08T10:51:26.847Z,22.37
2017-11-08T10:52:26.838Z,22.40
2017-11-08T10:53:26.833Z,22.40
2017-11-08T10:54:26.823Z,22.40
2017-11-08T10:55:26.840Z,22.36
2017-11-08T10:56:26.832Z,22.37
2017-11-08T10:57:26.810Z,22.40
2017-11-08T10:58:26.798Z,22.38
2017-11-08T10:59:26.789Z,22.36
2017-11-08T11:00:26.786Z,22.36
2017-11-08T11:01:26.777Z,22.40
2017-11-08T11:02:26.777Z,22.43
2017-11-08T11:03:26.763Z,22.37
2017-11-08T11:04:26.759Z,22.43
2017-11-08T11:05:26.751Z,22.41
2017-11-08T11:06:28.319Z,22.44
2017-11-08T11:07:26.736Z,22.38
2017-11-08T11:08:26.729Z,22.41
2017-11-08T11:09:26.725Z,22.38
2017-11-08T11:10:26.718Z,22.44
2017-11-08T11:11:26.709Z,22.44
2017-11-08T11:12:26.704Z,22.51
2017-11-08T11:13:26.704Z,22.36
2017-11-08T11:14:26.694Z,22.41
2017-11-08T11:15:26.683Z,22.38
2017-11-08T11:16:26.677Z,22.38
2017-11-08T11:17:26.673Z,22.38
2017-11-08T11:18:26.663Z,22.43
2017-11-08T11:19:26.654Z,22.43
2017-11-08T11:20:26.656Z,22.38
2017-11-08T11:21:26.649Z,22.43
2017-11-08T11:22:26.637Z,22.41
2017-11-08T11:23:26.632Z,22.40
2017-11-08T11:24:26.625Z,22.43
2017-11-08T11:25:26.621Z,22.43
2017-11-08T11:26:26.616Z,22.43
2017-11-08T11:27:26.616Z,22.44
2017-11-08T11:28:26.603Z,22.43
2017-11-08T11:29:26.597Z,22.43
2017-11-08T11:30:26.594Z,22.46
2017-11-08T11:31:26.579Z,22.40
2017-11-08T11:32:26.572Z,22.40
2017-11-08T11:33:26.584Z,22.38
2017-11-08T11:34:26.583Z,22.38
2017-11-08T11:35:26.550Z,22.44
2017-11-08T11:36:26.550Z,22.37
2017-11-08T11:37:26.541Z,22.41
2017-11-08T11:38:26.535Z,22.41
2017-11-08T11:39:26.527Z,22.40
2017-11-08T11:40:26.529Z,22.38
2017-11-08T11:41:26.524Z,22.41
2017-11-08T11:42:26.503Z,22.41
2017-11-08T11:43:26.505Z,22.41
2017-11-08T11:44:26.489Z,22.44
2017-11-08T11:45:26.488Z,22.41
2017-11-08T11:46:26.493Z,22.43
2017-11-08T11:47:26.476Z,22.38
2017-11-08T11:48:26.470Z,22.41
2017-11-08T11:49:26.462Z,22.43
2017-11-08T11:50:26.454Z,22.41
2017-11-08T11:51:26.456Z,22.41
2017-11-08T11:52:26.441Z,22.44
2017-11-08T11:53:26.435Z,22.43
2017-11-08T11:54:26.429Z,22.46
2017-11-08T11:55:26.429Z,22.44
2017-11-08T11:56:26.415Z,22.38
2017-11-08T11:57:26.410Z,22.46
2017-11-08T11:58:26.402Z,22.47
2017-11-08T11:59:26.401Z,22.47
2017-11-08T12:00:26.395Z,22.38
2017-11-08T12:01:26.385Z,22.40
2017-11-08T12:02:26.380Z,22.37
2017-11-08T12:03:26.369Z,22.41
2017-11-08T12:04:26.363Z,22.46
2017-11-08T12:05:26.358Z,22.41
2017-11-08T12:06:26.360Z,22.36
2017-11-08T12:07:26.341Z,22.41
2017-11-08T12:08:26.336Z,22.43
2017-11-08T12:09:26.330Z,22.46
2017-11-08T12:10:26.331Z,22.41
2017-11-08T12:11:26.321Z,22.43
2017-11-08T12:12:26.311Z,22.38
2017-11-08T12:13:26.304Z,22.46
2017-11-08T12:14:26.301Z,22.41
2017-11-08T12:15:26.287Z,22.37
2017-11-08T12:16:26.287Z,22.38
2017-11-08T12:17:26.284Z,22.41
2017-11-08T12:18:26.270Z,22.41
2017-11-08T12:19:26.264Z,22.41
2017-11-08T12:20:26.258Z,22.43
2017-11-08T12:21:26.251Z,22.46
2017-11-08T12:22:26.254Z,22.44
2017-11-08T12:23:26.241Z,22.38
2017-11-08T12:24:26.239Z,22.41
2017-11-08T12:25:26.226Z,22.41
2017-11-08T12:26:26.218Z,22.44
2017-11-08T12:27:26.211Z,22.40
2017-11-08T12:28:26.206Z,22.52
2017-11-08T12:29:26.197Z,22.36
2017-11-08T12:30:26.192Z,22.40
2017-11-08T12:31:26.196Z,22.41
2017-11-08T12:32:26.177Z,22.38
2017-11-08T12:33:26.171Z,22.52
2017-11-08T12:34:26.165Z,22.49
2017-11-08T12:35:26.161Z,22.43
2017-11-08T12:36:26.148Z,22.46
2017-11-08T12:37:26.144Z,22.41
2017-11-08T12:38:26.144Z,22.52
2017-11-08T12:39:26.130Z,22.46
2017-11-08T12:40:26.133Z,22.56
2017-11-08T12:41:26.119Z,22.44
2017-11-08T12:42:26.112Z,22.40
2017-11-08T12:43:26.100Z,22.41
2017-11-08T12:44:26.098Z,22.55
2017-11-08T12:45:26.091Z,22.40
2017-11-08T12:46:26.089Z,22.53
2017-11-08T12:47:26.083Z,22.40
2017-11-08T12:48:26.069Z,22.56
2017-11-08T12:49:26.065Z,22.56
2017-11-08T12:50:26.065Z,22.49
2017-11-08T12:51:26.048Z,22.44
2017-11-08T12:52:26.048Z,22.51
2017-11-08T12:53:26.036Z,22.49